sensor_id;sensor_type;location;lat;lon;timestamp;P1;durP1;ratioP1;P2;durP2;ratioP2
74833;SDS011;63361;52.384;20.930;2022-09-09T16:53:51;46.45;;;26.10;;
74833;SDS011;63361;52.384;20.930;2022-09-09T16:56:18;38.65;;;26.20;;
74833;SDS011;63361;52.384;20.930;2022-09-09T17:05:16;34.67;;;19.63;;
74833;SDS011;63361;52.384;20.930;2022-09-09T17:07:41;37.60;;;24.50;;
74833;SDS011;63361;52.384;20.930;2022-09-09T17:10:08;42.15;;;23.40;;
74833;SDS011;63361;52.384;20.930;2022-09-09T17:12:33;35.47;;;21.67;;
74833;SDS011;63361;52.384;20.930;2022-09-09T17:15:00;33.67;;;22.63;;
74833;SDS011;63361;52.384;20.930;2022-09-09T17:17:28;36.03;;;23.67;;
74833;SDS011;63361;52.384;20.930;2022-09-09T17:19:53;34.67;;;21.90;;
74833;SDS011;63361;52.384;20.930;2022-09-09T17:22:18;37.57;;;23.37;;
74833;SDS011;63361;52.384;20.930;2022-09-09T17:24:45;32.17;;;20.67;;
74833;SDS011;63361;52.384;20.930;2022-09-09T17:27:32;34.13;;;22.13;;
74833;SDS011;63361;52.384;20.930;2022-09-09T17:33:37;26.83;;;14.33;;
74833;SDS011;63361;52.384;20.930;2022-09-09T17:36:17;27.15;;;13.80;;
74833;SDS011;63361;52.384;20.930;2022-09-09T17:38:46;23.40;;;12.77;;
74833;SDS011;63361;52.384;20.930;2022-09-09T17:41:18;23.37;;;13.87;;
74833;SDS011;63361;52.384;20.930;2022-09-09T17:43:46;28.65;;;17.58;;
74833;SDS011;63361;52.384;20.930;2022-09-09T17:48:38;33.47;;;22.13;;
74833;SDS011;63361;52.384;20.930;2022-09-09T17:58:56;27.77;;;15.00;;
74833;SDS011;63361;52.384;20.930;2022-09-09T18:01:26;27.20;;;14.23;;
74833;SDS011;63361;52.384;20.930;2022-09-09T18:03:53;28.45;;;15.45;;
74833;SDS011;63361;52.384;20.930;2022-09-09T18:06:22;29.58;;;14.82;;
74833;SDS011;63361;52.384;20.930;2022-09-09T18:08:52;33.40;;;17.50;;
74833;SDS011;63361;52.384;20.930;2022-09-09T18:11:23;29.17;;;15.70;;
74833;SDS011;63361;52.384;20.930;2022-09-09T18:13:56;33.05;;;18.35;;
74833;SDS011;63361;52.384;20.930;2022-09-09T18:16:24;34.72;;;18.02;;
74833;SDS011;63361;52.384;20.930;2022-09-09T18:18:51;34.40;;;17.35;;
74833;SDS011;63361;52.384;20.930;2022-09-09T18:21:17;32.23;;;17.87;;
74833;SDS011;63361;52.384;20.930;2022-09-09T18:23:44;35.03;;;17.30;;
74833;SDS011;63361;52.384;20.930;2022-09-09T18:26:20;48.97;;;22.65;;
74833;SDS011;63361;52.384;20.930;2022-09-09T18:28:52;41.33;;;20.35;;
74833;SDS011;63361;52.384;20.930;2022-09-09T18:31:19;54.73;;;25.73;;
74833;SDS011;63361;52.384;20.930;2022-09-09T18:33:51;43.95;;;20.35;;
74833;SDS011;63361;52.384;20.930;2022-09-09T18:36:31;54.83;;;27.42;;
74833;SDS011;63361;52.384;20.930;2022-09-09T18:38:58;40.20;;;20.25;;
74833;SDS011;63361;52.384;20.930;2022-09-09T18:41:29;52.38;;;27.10;;
74833;SDS011;63361;52.384;20.930;2022-09-09T18:43:59;37.20;;;19.00;;
74833;SDS011;63361;52.384;20.930;2022-09-09T18:46:27;38.50;;;19.50;;
74833;SDS011;63361;52.384;20.930;2022-09-09T18:48:54;45.63;;;21.40;;
74833;SDS011;63361;52.384;20.930;2022-09-09T18:51:20;36.97;;;18.52;;
74833;SDS011;63361;52.384;20.930;2022-09-09T18:53:48;38.53;;;18.92;;
74833;SDS011;63361;52.384;20.930;2022-09-09T18:56:15;35.47;;;18.27;;
74833;SDS011;63361;52.384;20.930;2022-09-09T18:58:40;40.27;;;20.07;;
74833;SDS011;63361;52.384;20.930;2022-09-09T19:01:09;67.07;;;31.20;;
74833;SDS011;63361;52.384;20.930;2022-09-09T19:03:36;45.30;;;23.00;;
74833;SDS011;63361;52.384;20.930;2022-09-09T19:06:06;38.10;;;19.43;;
74833;SDS011;63361;52.384;20.930;2022-09-09T19:08:36;41.03;;;19.83;;
74833;SDS011;63361;52.384;20.930;2022-09-09T19:11:03;36.90;;;19.75;;
74833;SDS011;63361;52.384;20.930;2022-09-09T19:13:33;35.85;;;19.05;;
74833;SDS011;63361;52.384;20.930;2022-09-09T19:16:06;35.35;;;18.50;;
74833;SDS011;63361;52.384;20.930;2022-09-09T19:18:34;34.38;;;18.52;;
74833;SDS011;63361;52.384;20.930;2022-09-09T19:21:10;34.53;;;17.13;;
74833;SDS011;63361;52.384;20.930;2022-09-09T19:23:35;33.25;;;18.10;;
74833;SDS011;63361;52.384;20.930;2022-09-09T19:26:01;36.10;;;19.00;;
74833;SDS011;63361;52.384;20.930;2022-09-09T19:28:27;36.80;;;19.05;;
74833;SDS011;63361;52.384;20.930;2022-09-09T19:30:52;38.83;;;19.67;;
74833;SDS011;63361;52.384;20.930;2022-09-09T19:33:20;43.42;;;20.40;;
74833;SDS011;63361;52.384;20.930;2022-09-09T19:35:45;38.83;;;19.37;;
74833;SDS011;63361;52.384;20.930;2022-09-09T19:38:21;43.05;;;20.40;;
74833;SDS011;63361;52.384;20.930;2022-09-09T19:40:46;42.38;;;20.25;;
74833;SDS011;63361;52.384;20.930;2022-09-09T19:43:12;38.77;;;19.83;;
74833;SDS011;63361;52.384;20.930;2022-09-09T19:45:37;34.77;;;17.97;;
74833;SDS011;63361;52.384;20.930;2022-09-09T19:48:03;36.22;;;18.98;;
74833;SDS011;63361;52.384;20.930;2022-09-09T19:50:30;38.83;;;19.20;;
74833;SDS011;63361;52.384;20.930;2022-09-09T19:52:55;38.60;;;18.33;;
74833;SDS011;63361;52.384;20.930;2022-09-09T19:55:20;34.22;;;18.52;;
74833;SDS011;63361;52.384;20.930;2022-09-09T19:57:46;36.90;;;17.67;;
74833;SDS011;63361;52.384;20.930;2022-09-09T20:00:11;34.60;;;17.67;;
74833;SDS011;63361;52.384;20.930;2022-09-09T20:02:37;33.03;;;17.37;;
74833;SDS011;63361;52.384;20.930;2022-09-09T20:05:03;36.90;;;18.00;;
74833;SDS011;63361;52.384;20.930;2022-09-09T20:07:30;33.70;;;17.85;;
74833;SDS011;63361;52.384;20.930;2022-09-09T20:09:57;34.78;;;17.55;;
74833;SDS011;63361;52.384;20.930;2022-09-09T20:12:22;35.10;;;17.57;;
74833;SDS011;63361;52.384;20.930;2022-09-09T20:14:47;28.33;;;15.57;;
74833;SDS011;63361;52.384;20.930;2022-09-09T20:17:13;28.43;;;16.20;;
74833;SDS011;63361;52.384;20.930;2022-09-09T20:19:38;30.43;;;15.40;;
74833;SDS011;63361;52.384;20.930;2022-09-09T20:22:04;26.00;;;13.15;;
74833;SDS011;63361;52.384;20.930;2022-09-09T20:24:29;27.80;;;15.47;;
74833;SDS011;63361;52.384;20.930;2022-09-09T20:26:54;30.40;;;16.03;;
74833;SDS011;63361;52.384;20.930;2022-09-09T20:29:20;28.83;;;15.53;;
74833;SDS011;63361;52.384;20.930;2022-09-09T20:31:46;28.70;;;15.63;;
74833;SDS011;63361;52.384;20.930;2022-09-09T20:34:13;29.53;;;14.80;;
74833;SDS011;63361;52.384;20.930;2022-09-09T20:36:40;29.52;;;15.18;;
74833;SDS011;63361;52.384;20.930;2022-09-09T20:39:07;31.02;;;15.15;;
74833;SDS011;63361;52.384;20.930;2022-09-09T20:41:35;28.20;;;16.23;;
74833;SDS011;63361;52.384;20.930;2022-09-09T20:44:03;26.55;;;14.95;;
74833;SDS011;63361;52.384;20.930;2022-09-09T20:46:39;24.63;;;13.10;;
74833;SDS011;63361;52.384;20.930;2022-09-09T20:49:07;28.25;;;14.68;;
74833;SDS011;63361;52.384;20.930;2022-09-09T20:51:35;25.35;;;14.82;;
74833;SDS011;63361;52.384;20.930;2022-09-09T20:54:02;25.52;;;14.60;;
74833;SDS011;63361;52.384;20.930;2022-09-09T20:56:36;24.48;;;13.95;;
74833;SDS011;63361;52.384;20.930;2022-09-09T20:59:04;23.83;;;13.53;;
74833;SDS011;63361;52.384;20.930;2022-09-09T21:01:30;25.77;;;13.40;;
74833;SDS011;63361;52.384;20.930;2022-09-09T21:03:56;25.73;;;14.03;;
74833;SDS011;63361;52.384;20.930;2022-09-09T21:06:22;27.75;;;14.50;;
74833;SDS011;63361;52.384;20.930;2022-09-09T21:08:48;28.33;;;15.47;;
74833;SDS011;63361;52.384;20.930;2022-09-09T21:11:13;24.85;;;13.98;;
74833;SDS011;63361;52.384;20.930;2022-09-09T21:13:39;26.33;;;14.07;;
74833;SDS011;63361;52.384;20.930;2022-09-09T21:16:05;22.70;;;12.87;;
74833;SDS011;63361;52.384;20.930;2022-09-09T21:18:32;25.75;;;14.73;;
74833;SDS011;63361;52.384;20.930;2022-09-09T21:20:59;23.85;;;12.93;;
74833;SDS011;63361;52.384;20.930;2022-09-09T21:23:25;27.35;;;15.15;;
74833;SDS011;63361;52.384;20.930;2022-09-09T21:25:52;27.43;;;14.43;;
74833;SDS011;63361;52.384;20.930;2022-09-09T21:28:18;25.58;;;14.00;;
74833;SDS011;63361;52.384;20.930;2022-09-09T21:30:48;26.35;;;14.80;;
74833;SDS011;63361;52.384;20.930;2022-09-09T21:33:15;29.38;;;15.95;;
74833;SDS011;63361;52.384;20.930;2022-09-09T21:35:42;26.77;;;14.83;;
74833;SDS011;63361;52.384;20.930;2022-09-09T21:38:09;25.63;;;14.15;;
74833;SDS011;63361;52.384;20.930;2022-09-09T21:40:37;26.35;;;14.63;;
74833;SDS011;63361;52.384;20.930;2022-09-09T21:43:04;27.10;;;14.23;;
74833;SDS011;63361;52.384;20.930;2022-09-09T21:45:30;23.67;;;14.50;;
74833;SDS011;63361;52.384;20.930;2022-09-09T21:47:58;25.92;;;14.00;;
74833;SDS011;63361;52.384;20.930;2022-09-09T21:50:24;26.77;;;14.27;;
74833;SDS011;63361;52.384;20.930;2022-09-09T21:52:50;27.10;;;13.93;;
74833;SDS011;63361;52.384;20.930;2022-09-09T21:55:15;27.30;;;15.05;;
74833;SDS011;63361;52.384;20.930;2022-09-09T21:57:40;27.67;;;13.93;;
74833;SDS011;63361;52.384;20.930;2022-09-09T22:00:06;24.53;;;13.67;;
74833;SDS011;63361;52.384;20.930;2022-09-09T22:02:42;25.58;;;13.30;;
74833;SDS011;63361;52.384;20.930;2022-09-09T22:05:08;23.73;;;12.80;;
74833;SDS011;63361;52.384;20.930;2022-09-09T22:07:34;26.93;;;13.70;;
74833;SDS011;63361;52.384;20.930;2022-09-09T22:10:00;22.80;;;13.50;;
74833;SDS011;63361;52.384;20.930;2022-09-09T22:12:26;23.60;;;13.40;;
74833;SDS011;63361;52.384;20.930;2022-09-09T22:14:51;24.65;;;13.52;;
74833;SDS011;63361;52.384;20.930;2022-09-09T22:17:17;28.07;;;14.37;;
74833;SDS011;63361;52.384;20.930;2022-09-09T22:19:48;23.48;;;12.50;;
74833;SDS011;63361;52.384;20.930;2022-09-09T22:22:14;24.58;;;12.63;;
74833;SDS011;63361;52.384;20.930;2022-09-09T22:24:40;24.57;;;12.00;;
74833;SDS011;63361;52.384;20.930;2022-09-09T22:27:05;23.17;;;12.40;;
74833;SDS011;63361;52.384;20.930;2022-09-09T22:29:30;21.52;;;12.20;;
74833;SDS011;63361;52.384;20.930;2022-09-09T22:31:56;22.07;;;12.67;;
74833;SDS011;63361;52.384;20.930;2022-09-09T22:34:22;22.40;;;12.65;;
74833;SDS011;63361;52.384;20.930;2022-09-09T22:36:48;23.20;;;12.33;;
74833;SDS011;63361;52.384;20.930;2022-09-09T22:39:15;22.33;;;11.85;;
74833;SDS011;63361;52.384;20.930;2022-09-09T22:41:40;20.57;;;11.47;;
74833;SDS011;63361;52.384;20.930;2022-09-09T22:44:06;23.17;;;12.50;;
74833;SDS011;63361;52.384;20.930;2022-09-09T22:46:32;18.60;;;10.40;;
74833;SDS011;63361;52.384;20.930;2022-09-09T22:48:57;19.03;;;11.07;;
74833;SDS011;63361;52.384;20.930;2022-09-09T22:51:23;20.87;;;11.87;;
74833;SDS011;63361;52.384;20.930;2022-09-09T22:53:48;21.02;;;12.15;;
74833;SDS011;63361;52.384;20.930;2022-09-09T22:56:14;19.87;;;10.23;;
74833;SDS011;63361;52.384;20.930;2022-09-09T22:58:41;20.50;;;11.25;;
74833;SDS011;63361;52.384;20.930;2022-09-09T23:01:08;18.67;;;10.20;;
74833;SDS011;63361;52.384;20.930;2022-09-09T23:03:38;19.30;;;11.18;;
74833;SDS011;63361;52.384;20.930;2022-09-09T23:06:06;18.75;;;11.25;;
74833;SDS011;63361;52.384;20.930;2022-09-09T23:08:34;20.77;;;12.00;;
74833;SDS011;63361;52.384;20.930;2022-09-09T23:11:07;19.67;;;10.73;;
74833;SDS011;63361;52.384;20.930;2022-09-09T23:13:38;21.03;;;11.67;;
74833;SDS011;63361;52.384;20.930;2022-09-09T23:18:34;20.52;;;11.15;;
74833;SDS011;63361;52.384;20.930;2022-09-09T23:21:00;19.83;;;10.90;;
74833;SDS011;63361;52.384;20.930;2022-09-09T23:23:26;17.33;;;10.47;;
74833;SDS011;63361;52.384;20.930;2022-09-09T23:25:52;18.45;;;10.57;;
74833;SDS011;63361;52.384;20.930;2022-09-09T23:28:17;22.27;;;11.33;;
74833;SDS011;63361;52.384;20.930;2022-09-09T23:30:43;19.33;;;11.07;;
74833;SDS011;63361;52.384;20.930;2022-09-09T23:33:08;20.45;;;11.40;;
74833;SDS011;63361;52.384;20.930;2022-09-09T23:35:33;18.90;;;10.73;;
74833;SDS011;63361;52.384;20.930;2022-09-09T23:37:59;20.73;;;12.23;;
74833;SDS011;63361;52.384;20.930;2022-09-09T23:40:24;19.27;;;11.40;;
74833;SDS011;63361;52.384;20.930;2022-09-09T23:42:51;20.75;;;12.05;;
74833;SDS011;63361;52.384;20.930;2022-09-09T23:45:18;23.08;;;12.60;;
74833;SDS011;63361;52.384;20.930;2022-09-09T23:47:43;24.30;;;12.30;;
74833;SDS011;63361;52.384;20.930;2022-09-09T23:50:09;24.17;;;12.37;;
74833;SDS011;63361;52.384;20.930;2022-09-09T23:52:34;25.87;;;12.20;;
74833;SDS011;63361;52.384;20.930;2022-09-09T23:55:01;24.70;;;12.93;;
74833;SDS011;63361;52.384;20.930;2022-09-09T23:57:26;23.97;;;13.03;;
74833;SDS011;63361;52.384;20.930;2022-09-09T23:59:51;27.90;;;13.73;;
